createdAt,value
2022-12-11T00:01:19.610Z,71.80
2022-12-11T00:03:48.105Z,68.00
2022-12-11T00:06:17.738Z,63.00
2022-12-11T00:08:45.353Z,65.40
2022-12-11T00:11:19.693Z,59.10
2022-12-11T00:13:59.957Z,61.90
2022-12-11T00:16:45.021Z,63.20
2022-12-11T00:19:22.545Z,60.30
2022-12-11T00:31:31.323Z,63.10
2022-12-11T00:33:58.670Z,58.60
2022-12-11T00:36:27.101Z,62.80
2022-12-11T00:38:57.188Z,64.90
2022-12-11T00:41:24.543Z,57.70
2022-12-11T00:43:51.632Z,60.20
2022-12-11T00:46:19.673Z,55.80
2022-12-11T00:48:49.448Z,56.10
2022-12-11T00:51:17.732Z,62.00
2022-12-11T00:53:44.931Z,56.00
2022-12-11T01:00:08.533Z,55.70
2022-12-11T01:06:47.342Z,56.50
2022-12-11T01:19:26.638Z,65.20
2022-12-11T01:30:52.827Z,68.90
2022-12-11T01:33:21.576Z,65.30
2022-12-11T01:35:56.766Z,60.60
2022-12-11T01:38:26.587Z,57.50
2022-12-11T01:40:59.870Z,60.30
2022-12-11T01:43:34.634Z,63.00
2022-12-11T01:49:48.614Z,61.70
2022-12-11T01:52:38.406Z,63.40
2022-12-11T01:59:25.644Z,64.60
2022-12-11T02:03:25.295Z,61.90
2022-12-11T02:07:47.013Z,58.00
2022-12-11T02:12:05.820Z,67.50
2022-12-11T02:19:23.618Z,62.80
2022-12-11T02:22:06.555Z,63.50
2022-12-11T02:25:11.800Z,58.50
2022-12-11T02:28:14.841Z,57.80
2022-12-11T02:30:49.651Z,57.30
2022-12-11T02:33:28.585Z,61.70
2022-12-11T02:35:59.643Z,54.60
2022-12-11T02:38:35.485Z,63.00
2022-12-11T02:41:42.179Z,61.80
2022-12-11T02:44:56.914Z,57.70
2022-12-11T03:01:10.495Z,62.80
2022-12-11T03:01:28.251Z,53.00
2022-12-11T03:04:18.662Z,56.20
2022-12-11T03:06:54.713Z,53.70
2022-12-11T03:09:33.632Z,60.50
2022-12-11T03:12:05.822Z,57.00
2022-12-11T03:33:05.261Z,50.40
2022-12-11T03:35:39.201Z,46.50
2022-12-11T03:38:14.433Z,52.00
2022-12-11T03:40:46.547Z,55.10
2022-12-11T03:43:16.841Z,51.40
2022-12-11T03:45:49.159Z,51.40
2022-12-11T03:48:19.198Z,49.40
2022-12-11T03:50:52.198Z,48.30
2022-12-11T03:53:23.688Z,51.60
2022-12-11T03:56:04.653Z,50.40
2022-12-11T03:58:48.241Z,42.00
2022-12-11T04:01:17.354Z,45.80
2022-12-11T04:07:15.237Z,43.50
2022-12-11T04:09:43.725Z,44.00
2022-12-11T04:12:12.136Z,42.60
2022-12-11T04:14:59.340Z,43.60
2022-12-11T04:17:48.500Z,39.60
2022-12-11T04:20:35.863Z,44.30
2022-12-11T04:23:32.524Z,44.00
2022-12-11T04:26:06.862Z,43.30
2022-12-11T04:28:36.592Z,41.90
2022-12-11T04:31:06.794Z,40.30
2022-12-11T04:33:40.035Z,44.30
2022-12-11T04:36:37.039Z,44.00
2022-12-11T04:39:24.647Z,45.90
2022-12-11T04:41:58.450Z,47.00
2022-12-11T04:45:06.721Z,40.10
2022-12-11T04:48:05.128Z,47.40
2022-12-11T04:50:41.359Z,43.90
2022-12-11T04:53:23.132Z,41.60
2022-12-11T04:56:19.373Z,42.00
2022-12-11T05:07:55.514Z,42.90
2022-12-11T05:10:32.849Z,44.70
2022-12-11T05:13:25.661Z,42.10
2022-12-11T05:52:28.347Z,40.90
2022-12-11T05:55:29.446Z,37.40
2022-12-11T05:58:21.843Z,41.60
2022-12-11T06:00:57.149Z,31.60
2022-12-11T06:03:39.989Z,31.70
2022-12-11T06:06:12.136Z,32.40
2022-12-11T06:08:41.035Z,30.30
2022-12-11T06:11:10.011Z,33.10
2022-12-11T06:18:14.521Z,30.10
2022-12-11T06:25:22.631Z,24.70
2022-12-11T06:27:54.103Z,26.90
2022-12-11T06:30:37.334Z,25.80
2022-12-11T06:33:16.928Z,28.20
2022-12-11T06:36:14.334Z,29.10
2022-12-11T06:38:49.155Z,29.50
2022-12-11T06:46:47.083Z,27.40
2022-12-11T06:48:06.353Z,31.10
2022-12-11T08:15:57.487Z,28.00
2022-12-11T08:18:54.783Z,34.50
2022-12-11T08:21:43.692Z,26.70
2022-12-11T08:24:38.992Z,28.90
2022-12-11T08:27:45.970Z,30.90
2022-12-11T08:30:28.934Z,28.90
2022-12-11T08:33:04.108Z,34.60
2022-12-11T08:35:44.825Z,31.80
2022-12-11T08:38:29.540Z,32.70
2022-12-11T08:41:17.383Z,31.50
2022-12-11T08:43:58.780Z,31.90
2022-12-11T08:47:24.645Z,28.90
2022-12-11T08:51:30.111Z,25.80
2022-12-11T08:53:55.994Z,26.80
2022-12-11T09:00:44.130Z,28.30
2022-12-11T09:07:56.467Z,25.40
2022-12-11T09:10:49.490Z,25.90
2022-12-11T09:13:48.959Z,32.30
2022-12-11T09:16:37.353Z,27.70
2022-12-11T09:19:19.074Z,26.20
2022-12-11T09:21:58.548Z,29.30
2022-12-11T09:24:43.637Z,30.40
2022-12-11T09:27:25.140Z,28.80
2022-12-11T09:30:20.516Z,26.10
2022-12-11T09:36:39.189Z,28.00
2022-12-11T09:39:40.961Z,29.60
2022-12-11T09:43:13.882Z,26.40
2022-12-11T09:46:14.690Z,25.10
2022-12-11T09:48:54.623Z,25.30
2022-12-11T09:51:40.006Z,27.90
2022-12-11T09:54:35.834Z,25.70
2022-12-11T09:57:27.715Z,27.70
2022-12-11T10:00:21.373Z,25.40
2022-12-11T10:03:17.128Z,26.40
2022-12-11T10:06:16.126Z,25.50
2022-12-11T10:09:11.081Z,27.40
2022-12-11T10:12:13.414Z,29.20
2022-12-11T10:15:14.256Z,27.20
2022-12-11T10:17:59.892Z,24.50
2022-12-11T10:20:42.383Z,25.30
2022-12-11T10:23:29.587Z,25.90
2022-12-11T10:26:34.878Z,25.10
2022-12-11T10:29:18.071Z,24.60
2022-12-11T10:32:01.122Z,24.40
2022-12-11T10:34:46.360Z,29.20
2022-12-11T10:37:30.994Z,28.10
2022-12-11T10:40:17.366Z,25.50
2022-12-11T10:43:30.318Z,27.90
2022-12-11T10:46:01.177Z,24.70
2022-12-11T10:48:32.934Z,26.90
2022-12-11T10:51:08.120Z,23.60
2022-12-11T10:53:46.677Z,25.70
2022-12-11T10:56:29.194Z,25.10
2022-12-11T10:59:10.687Z,25.50
2022-12-11T11:06:13.605Z,23.80
2022-12-11T11:09:07.585Z,24.50
2022-12-11T11:12:00.823Z,26.00
2022-12-11T11:14:39.301Z,23.30
2022-12-11T11:17:32.002Z,26.00
2022-12-11T11:20:27.148Z,23.60
2022-12-11T11:23:17.933Z,25.90
2022-12-11T11:26:04.194Z,19.70
2022-12-11T11:28:56.363Z,25.00
2022-12-11T11:41:14.773Z,19.60
2022-12-11T11:43:54.178Z,19.70
2022-12-11T11:54:45.140Z,24.60
2022-12-11T12:12:41.169Z,19.00
2022-12-11T12:24:32.309Z,22.10
2022-12-11T12:30:59.789Z,25.60
2022-12-11T12:42:05.614Z,20.20
2022-12-11T12:45:04.311Z,22.40
2022-12-11T12:47:53.398Z,20.90
2022-12-11T12:56:17.603Z,25.00
2022-12-11T12:59:00.146Z,24.10
2022-12-11T13:04:58.468Z,24.70
2022-12-11T13:07:37.363Z,21.40
2022-12-11T13:13:58.285Z,25.50
2022-12-11T13:20:27.550Z,25.70
2022-12-11T13:24:45.489Z,27.40
2022-12-11T13:26:57.396Z,23.20
2022-12-11T13:29:39.678Z,24.00
2022-12-11T13:32:14.172Z,26.90
2022-12-11T13:35:30.797Z,27.60
2022-12-11T13:38:40.464Z,28.50
2022-12-11T13:41:17.224Z,23.80
2022-12-11T13:43:56.017Z,21.80
2022-12-11T13:46:39.873Z,24.30
2022-12-11T13:52:43.254Z,23.00
2022-12-11T13:55:39.224Z,25.50
2022-12-11T13:58:41.859Z,25.60
2022-12-11T14:01:45.731Z,22.70
2022-12-11T14:04:58.321Z,25.30
2022-12-11T14:14:51.866Z,26.00
2022-12-11T14:17:26.563Z,25.20
2022-12-11T14:19:58.858Z,19.70
2022-12-11T14:22:35.162Z,22.80
2022-12-11T14:25:27.687Z,23.20
2022-12-11T14:28:06.736Z,23.90
2022-12-11T14:30:40.547Z,24.30
2022-12-11T14:33:17.832Z,22.80
2022-12-11T14:35:49.214Z,20.10
2022-12-11T14:38:50.317Z,25.40
2022-12-11T14:41:26.631Z,21.50
2022-12-11T14:44:11.763Z,23.70
2022-12-11T14:46:57.328Z,21.50
2022-12-11T14:49:35.993Z,21.00
2022-12-11T14:52:05.508Z,22.70
2022-12-11T14:54:40.643Z,24.60
2022-12-11T14:57:19.164Z,20.60
2022-12-11T14:59:53.212Z,23.40
2022-12-11T15:02:37.077Z,21.50
2022-12-11T15:05:21.789Z,18.80
2022-12-11T15:08:16.409Z,23.10
2022-12-11T15:12:08.304Z,18.90
2022-12-11T15:15:04.047Z,19.10
2022-12-11T15:17:40.360Z,19.60
2022-12-11T15:20:24.301Z,21.30
2022-12-11T15:22:55.896Z,19.40
2022-12-11T16:09:09.405Z,18.30
2022-12-11T16:42:14.244Z,24.40
2022-12-11T16:44:59.681Z,24.60
2022-12-11T16:47:36.628Z,22.30
2022-12-11T16:59:49.342Z,27.20
2022-12-11T17:06:16.370Z,24.70
2022-12-11T17:10:05.933Z,19.90
2022-12-11T17:13:57.508Z,25.90
2022-12-11T17:16:41.282Z,21.30
2022-12-11T17:19:15.382Z,19.50
2022-12-11T17:21:51.571Z,20.00
2022-12-11T17:24:23.507Z,25.80
2022-12-11T17:26:56.623Z,21.40
2022-12-11T17:29:27.553Z,23.10
2022-12-11T17:31:59.718Z,22.90
2022-12-11T17:34:36.152Z,20.00
2022-12-11T17:37:08.980Z,21.60
2022-12-11T17:42:12.706Z,22.60
2022-12-11T17:44:46.210Z,23.10
2022-12-11T17:47:24.773Z,25.00
2022-12-11T17:49:58.477Z,24.70
2022-12-11T17:52:34.079Z,25.80
2022-12-11T17:55:10.481Z,20.50
2022-12-11T17:57:42.655Z,23.10
2022-12-11T18:00:17.626Z,25.50
2022-12-11T18:02:52.285Z,25.20
2022-12-11T18:05:24.351Z,25.30
2022-12-11T18:07:57.891Z,23.40
2022-12-11T18:10:29.693Z,20.10
2022-12-11T18:19:27.880Z,28.60
2022-12-11T18:22:04.332Z,23.50
2022-12-11T18:28:15.026Z,36.60
2022-12-11T18:34:53.565Z,24.00
2022-12-11T18:38:36.434Z,29.90
2022-12-11T18:45:15.361Z,34.30
2022-12-11T18:47:57.533Z,30.50
2022-12-11T18:50:52.032Z,34.90
2022-12-11T18:56:50.224Z,38.80
2022-12-11T18:59:46.163Z,36.30
2022-12-11T19:02:16.647Z,33.10
2022-12-11T19:04:53.788Z,34.10
2022-12-11T19:07:38.474Z,32.10
2022-12-11T19:10:22.356Z,30.60
2022-12-11T19:12:52.341Z,34.10
2022-12-11T19:15:32.757Z,34.10
2022-12-11T19:18:26.889Z,29.50
2022-12-11T19:21:08.363Z,32.10
2022-12-11T19:23:49.429Z,30.80
2022-12-11T19:26:31.737Z,33.00
2022-12-11T19:29:03.540Z,32.10
2022-12-11T19:31:53.665Z,36.40
2022-12-11T19:34:36.499Z,31.70
2022-12-11T19:37:06.988Z,36.00
2022-12-11T19:39:40.946Z,34.20
2022-12-11T19:42:12.395Z,31.60
2022-12-11T19:44:45.063Z,28.80
2022-12-11T19:47:24.613Z,32.30
2022-12-11T19:50:01.597Z,29.60
2022-12-11T19:52:32.232Z,28.60
2022-12-11T19:55:20.433Z,34.20
2022-12-11T19:58:10.154Z,32.90
2022-12-11T20:00:49.590Z,27.80
2022-12-11T20:03:23.018Z,33.20
2022-12-11T20:06:02.620Z,34.30
2022-12-11T20:08:47.767Z,29.50
2022-12-11T20:11:29.752Z,27.60
2022-12-11T20:14:18.482Z,33.80
2022-12-11T20:19:42.860Z,29.40
2022-12-11T20:22:12.952Z,31.30
2022-12-11T20:24:55.821Z,33.40
2022-12-11T20:34:04.171Z,29.40
2022-12-11T20:37:03.394Z,31.00
2022-12-11T20:42:30.405Z,25.40
2022-12-11T20:44:59.959Z,24.00
2022-12-11T20:47:48.929Z,29.00
2022-12-11T20:50:22.846Z,31.30
2022-12-11T20:56:00.423Z,32.20
2022-12-11T20:58:30.689Z,27.80
2022-12-11T21:05:29.354Z,28.70
2022-12-11T21:08:14.197Z,27.80
2022-12-11T21:11:02.523Z,27.80
2022-12-11T21:13:43.624Z,29.60
2022-12-11T21:16:26.330Z,24.00
2022-12-11T21:19:16.837Z,27.70
2022-12-11T21:25:18.246Z,23.70
2022-12-11T21:28:00.548Z,25.20
2022-12-11T21:30:51.950Z,23.50
2022-12-11T21:33:27.693Z,22.90
2022-12-11T21:35:59.066Z,23.70
2022-12-11T21:38:33.515Z,27.50
2022-12-11T21:41:18.854Z,23.80
2022-12-11T21:45:03.395Z,24.20
2022-12-11T21:46:43.808Z,27.30
2022-12-11T21:52:09.720Z,28.20
2022-12-11T21:54:47.917Z,25.40
2022-12-11T21:57:25.849Z,29.00
2022-12-11T22:00:05.481Z,31.60
2022-12-11T22:02:40.995Z,32.40
2022-12-11T22:05:13.136Z,24.90
2022-12-11T22:07:49.108Z,28.30
2022-12-11T22:10:21.337Z,28.90
2022-12-11T22:12:51.724Z,29.90
2022-12-11T22:15:22.760Z,28.80
2022-12-11T22:17:53.186Z,26.60
2022-12-11T22:22:53.290Z,28.90
2022-12-11T22:25:36.248Z,29.80
2022-12-11T22:28:06.097Z,26.50
2022-12-11T22:30:41.961Z,25.40
2022-12-11T22:33:24.809Z,28.50
2022-12-11T22:38:43.319Z,29.40
2022-12-11T22:41:29.905Z,29.80
2022-12-11T22:44:05.706Z,23.70
2022-12-11T22:46:38.066Z,27.90
2022-12-11T22:49:08.552Z,25.00
2022-12-11T22:51:39.224Z,31.70
2022-12-11T22:54:08.425Z,26.60
2022-12-11T22:56:38.308Z,28.40
2022-12-11T22:59:10.098Z,28.70
2022-12-11T23:01:39.375Z,28.00
2022-12-11T23:04:08.528Z,24.50
2022-12-11T23:06:38.726Z,23.60
2022-12-11T23:11:48.300Z,25.10
2022-12-11T23:14:32.247Z,26.50
2022-12-11T23:17:04.585Z,25.10
2022-12-11T23:19:40.519Z,27.80
2022-12-11T23:26:57.830Z,26.00
2022-12-11T23:29:43.927Z,22.70
2022-12-11T23:32:30.792Z,23.20
2022-12-11T23:35:17.895Z,24.80
2022-12-11T23:37:52.803Z,25.10
2022-12-11T23:40:23.024Z,24.30
2022-12-11T23:42:54.267Z,25.40
2022-12-11T23:45:23.353Z,27.40
2022-12-11T23:47:52.474Z,28.00
2022-12-11T23:50:21.600Z,26.10
2022-12-11T23:52:50.478Z,26.50
2022-12-11T23:55:22.235Z,28.30
2022-12-11T23:57:53.856Z,31.40
